Capitol Logistics 71




PANC
Ted Stevens Anchorage International Airport
Anchorage, Alaska
KBWI
Baltimore/Washington International Thurgood Marshall Airport
Baltimore, Maryland

Route Details

Aircraft Information
Primary: Boeing 767-300BDSF
Backup: Boeing 747-400BCF
Route Data
Distance: 2928nm
Duration: 5h 20m
Recm'd Route: BGQ GKN ORT NCA17 TIBOY 63N30 YFS J521 YSM 59N08 58N04 YYL J521 YTH 5494N 5290N 5087N OVBAG OTNIK MUSIT Q917 PIKSA WOZEE IZZEE TRISH3
Origin Wx: PANC 141953Z 00000KT 10SM BKN065 04/M02 A2967 RMK AO2 RAE50 SLP050 P0001 T00391022
Dest. Wx: KBWI 141954Z 15004KT 2SM -RA BR FEW025 BKN055 OVC080 15/13 A2998 RMK AO2 SFC VIS 5 SLP150 P0003 T01500128
Notes: